Time;durP1;ratioP1;P1;durP2;ratioP2;P2;SDS_P1;SDS_P2;PMS_P1;PMS_P2;Temp;Humidity;BMP_temperature;BMP_pressure;BME280_temperature;BME280_humidity;BME280_pressure;Samples;Min_cycle;Max_cycle;Signal;HPM_P1;HPM_P2
2022/08/15 00:00:13;;;;;;;4.78;3.00;;;;;;;24.23;55.00;100183.88;2108561;28;20051;-75
2022/08/15 00:01:36;;;;;;;5.03;2.67;;;;;;;24.25;55.07;100167.63;2105327;28;20044;-74
2022/08/15 00:02:59;;;;;;;4.30;2.97;;;;;;;24.28;54.67;100161.22;2094693;28;20595;-74
2022/08/15 00:04:22;;;;;;;3.95;2.47;;;;;;;24.30;54.81;100170.09;2100408;28;20087;-74
2022/08/15 00:05:47;;;;;;;4.85;2.58;;;;;;;24.34;54.69;100172.56;2101658;28;20063;-75
2022/08/15 00:07:09;;;;;;;8.68;3.38;;;;;;;24.36;54.40;100170.66;2103058;28;20052;-74
2022/08/15 00:08:35;;;;;;;4.85;2.80;;;;;;;24.40;54.24;100182.19;2086135;28;20410;-75
2022/08/15 00:09:57;;;;;;;4.93;2.83;;;;;;;24.40;54.39;100183.06;2104668;27;20580;-75
2022/08/15 00:11:21;;;;;;;4.28;2.65;;;;;;;24.40;54.15;100182.19;2105790;28;20082;-75
2022/08/15 00:12:44;;;;;;;4.88;2.88;;;;;;;24.38;54.42;100190.34;2103173;28;20043;-74
2022/08/15 00:14:09;;;;;;;4.82;3.10;;;;;;;24.37;54.32;100187.72;2105485;28;20080;-75
2022/08/15 00:15:32;;;;;;;4.75;2.92;;;;;;;24.32;54.31;100182.56;2095195;28;20098;-74
2022/08/15 00:16:55;;;;;;;4.80;2.75;;;;;;;24.30;54.49;100178.19;2123761;27;20038;-74
2022/08/15 00:18:17;;;;;;;5.22;3.00;;;;;;;24.30;54.74;100175.50;2116726;27;20044;-75
2022/08/15 00:19:44;;;;;;;4.88;3.25;;;;;;;24.31;54.61;100169.16;2111582;28;20047;-75
2022/08/15 00:21:07;;;;;;;4.78;3.00;;;;;;;24.31;54.65;100167.31;2106443;28;20044;-74
2022/08/15 00:22:29;;;;;;;5.85;3.00;;;;;;;24.32;54.59;100160.97;2103056;28;20043;-75
2022/08/15 00:23:51;;;;;;;5.65;3.00;;;;;;;24.34;54.34;100158.22;2093930;28;20052;-75
2022/08/15 00:25:14;;;;;;;5.38;2.63;;;;;;;24.34;54.37;100158.22;2115897;27;20527;-75
2022/08/15 00:26:35;;;;;;;4.93;3.08;;;;;;;24.36;54.48;100154.47;2098825;28;20102;-74
2022/08/15 00:27:58;;;;;;;7.38;3.30;;;;;;;24.39;54.50;100161.53;2094373;28;20419;-74
2022/08/15 00:29:22;;;;;;;6.53;3.47;;;;;;;24.41;54.34;100160.53;2108677;28;20561;-75
2022/08/15 00:30:46;;;;;;;4.93;2.72;;;;;;;24.44;54.26;100164.88;2095649;28;20259;-74
2022/08/15 00:32:13;;;;;;;4.90;3.08;;;;;;;24.48;54.03;100175.41;2098855;28;20096;-74
2022/08/15 00:33:35;;;;;;;9.35;3.55;;;;;;;24.50;54.29;100178.94;2094822;28;20481;-74
2022/08/15 00:34:57;;;;;;;7.65;3.20;;;;;;;24.52;53.88;100184.25;2091179;28;20055;-74
2022/08/15 00:36:20;;;;;;;6.38;3.80;;;;;;;24.53;54.17;100177.91;2092080;28;20076;-74
2022/08/15 00:37:43;;;;;;;5.03;2.88;;;;;;;24.52;53.97;100185.13;2108630;27;20574;-75
2022/08/15 00:39:06;;;;;;;5.90;3.40;;;;;;;24.52;54.31;100176.16;2105514;28;20107;-75
2022/08/15 00:40:28;;;;;;;5.15;2.95;;;;;;;24.50;54.32;100178.06;2104199;28;20059;-75
2022/08/15 00:41:53;;;;;;;5.18;3.17;;;;;;;24.47;54.30;100162.91;2093609;28;20051;-74
2022/08/15 00:43:15;;;;;;;6.63;3.60;;;;;;;24.44;54.42;100154.94;2096399;28;20574;-74
2022/08/15 00:44:42;;;;;;;5.38;3.17;;;;;;;24.44;54.43;100146.84;2102848;28;20094;-74
2022/08/15 00:46:06;;;;;;;5.32;3.35;;;;;;;24.43;54.49;100142.41;2086652;28;20041;-74
2022/08/15 00:47:29;;;;;;;8.45;3.50;;;;;;;24.43;54.63;100153.19;2086648;28;20033;-74
2022/08/15 00:48:52;;;;;;;5.22;3.45;;;;;;;24.44;54.46;100148.69;2100206;28;20503;-75
2022/08/15 00:50:15;;;;;;;5.90;3.22;;;;;;;24.43;54.56;100157.72;2096917;28;20448;-74
2022/08/15 00:51:44;;;;;;;5.38;3.30;;;;;;;24.43;54.63;100166.69;2086343;28;20552;-74
2022/08/15 00:53:08;;;;;;;8.05;3.53;;;;;;;24.44;54.61;100178.38;2102344;28;20125;-75
2022/08/15 00:54:36;;;;;;;6.80;3.33;;;;;;;24.42;54.36;100180.25;2094743;28;20076;-75
2022/08/15 00:55:58;;;;;;;5.50;3.38;;;;;;;24.38;54.49;100179.56;2106310;28;20081;-75
2022/08/15 00:57:24;;;;;;;5.60;3.10;;;;;;;24.33;54.36;100178.91;2097587;28;20531;-75
2022/08/15 00:58:46;;;;;;;8.38;3.22;;;;;;;24.28;54.47;100178.28;2109260;28;20035;-75
2022/08/15 01:00:13;;;;;;;6.80;3.55;;;;;;;24.25;54.97;100173.03;2119693;27;20115;-75
2022/08/15 01:01:35;;;;;;;5.65;3.60;;;;;;;24.23;54.65;100169.53;2103709;28;20036;-75
2022/08/15 01:03:02;;;;;;;8.38;3.42;;;;;;;24.22;54.73;100156.97;2107858;28;20039;-75
2022/08/15 01:04:25;;;;;;;8.45;3.28;;;;;;;24.22;54.88;100149.75;2105368;28;20046;-74
2022/08/15 01:05:51;;;;;;;5.90;3.40;;;;;;;24.23;54.80;100153.34;2118943;27;20043;-75
2022/08/15 01:07:16;;;;;;;6.25;3.40;;;;;;;24.25;55.01;100155.97;2106615;28;20048;-74
2022/08/15 01:08:41;;;;;;;6.07;3.08;;;;;;;24.26;54.75;100161.28;2119737;27;20058;-74
2022/08/15 01:10:04;;;;;;;8.50;3.53;;;;;;;24.27;54.88;100165.75;2098796;28;20060;-75
2022/08/15 01:11:31;;;;;;;4.65;3.15;;;;;;;24.30;54.74;100170.09;2105713;28;20043;-75
2022/08/15 01:12:54;;;;;;;7.05;3.47;;;;;;;24.27;54.74;100178.34;2105240;28;20055;-75
2022/08/15 01:14:17;;;;;;;9.02;3.63;;;;;;;24.24;54.63;100176.66;2111311;28;20411;-74
2022/08/15 01:15:39;;;;;;;5.80;3.47;;;;;;;24.20;54.68;100178.66;2104652;28;20047;-75
2022/08/15 01:17:03;;;;;;;7.60;3.63;;;;;;;24.15;54.65;100177.13;2093112;28;20500;-74
2022/08/15 01:18:26;;;;;;;5.10;3.25;;;;;;;24.10;54.89;100174.63;2100572;28;20036;-74
2022/08/15 01:19:54;;;;;;;6.35;3.45;;;;;;;24.04;54.95;100174.94;2102467;28;20093;-75
2022/08/15 01:21:24;;;;;;;6.40;3.38;;;;;;;23.96;54.98;100173.56;2104584;28;20059;-74
2022/08/15 01:23:03;;;;;;;7.20;2.97;;;;;;;23.86;55.03;100173.13;2092330;28;20056;-75
2022/08/15 01:24:53;;;;;;;5.10;3.10;;;;;;;23.72;55.24;100164.84;2112420;28;20047;-75
2022/08/15 01:26:16;;;;;;;5.57;3.50;;;;;;;23.62;55.23;100168.94;2096382;28;20052;-75
2022/08/15 01:27:42;;;;;;;7.80;3.05;;;;;;;23.53;55.03;100166.66;2108395;28;20047;-74
2022/08/15 01:29:05;;;;;;;9.23;3.30;;;;;;;23.44;55.12;100168.81;2107122;28;20097;-74
2022/08/15 01:30:30;;;;;;;5.75;3.17;;;;;;;23.42;55.13;100164.44;2108997;28;20051;-74
2022/08/15 01:31:52;;;;;;;7.18;3.38;;;;;;;23.41;55.02;100170.78;2096353;28;20045;-75
2022/08/15 01:33:16;;;;;;;5.65;3.45;;;;;;;23.39;55.32;100178.03;2102427;28;20470;-75
2022/08/15 01:34:37;;;;;;;5.93;3.08;;;;;;;23.36;55.33;100187.16;2087604;28;20521;-75
2022/08/15 01:36:00;;;;;;;6.38;3.58;;;;;;;23.34;55.25;100189.03;2091261;28;20040;-74
2022/08/15 01:37:22;;;;;;;6.93;3.35;;;;;;;23.37;55.39;100190.72;2107957;28;20134;-74
2022/08/15 01:38:48;;;;;;;10.35;3.75;;;;;;;23.41;55.51;100186.94;2096506;28;20097;-74
2022/08/15 01:40:25;;;;;;;5.53;3.20;;;;;;;23.42;55.20;100191.41;2100712;28;20084;-74
2022/08/15 01:41:53;;;;;;;6.28;3.47;;;;;;;23.46;55.17;100187.59;2112745;28;20158;-74
2022/08/15 01:43:28;;;;;;;6.65;3.30;;;;;;;23.51;55.25;100190.97;2104794;28;20048;-74
2022/08/15 01:44:56;;;;;;;5.22;3.42;;;;;;;23.55;55.38;100180.94;2096279;28;20048;-74
2022/08/15 01:46:23;;;;;;;8.20;3.35;;;;;;;23.59;55.30;100180.72;2109317;28;20048;-74
2022/08/15 01:47:51;;;;;;;7.53;3.55;;;;;;;23.64;55.67;100177.78;2096391;28;20044;-74
2022/08/15 01:49:23;;;;;;;5.75;3.40;;;;;;;23.65;55.68;100182.25;2116807;27;20118;-74
2022/08/15 01:50:50;;;;;;;5.63;3.50;;;;;;;23.66;55.69;100178.59;2096016;28;20041;-74
2022/08/15 01:52:14;;;;;;;7.55;3.63;;;;;;;23.63;55.82;100182.31;2108040;28;20076;-74
2022/08/15 01:53:46;;;;;;;6.03;3.63;;;;;;;23.62;56.02;100179.72;2096768;28;20037;-74
2022/08/15 01:55:09;;;;;;;8.82;3.75;;;;;;;23.60;56.14;100184.28;2086878;28;20535;-75
2022/08/15 01:56:35;;;;;;;4.75;3.28;;;;;;;23.61;56.17;100175.25;2083442;28;20103;-74
2022/08/15 01:57:59;;;;;;;8.80;3.92;;;;;;;23.60;56.22;100178.91;2092692;28;20143;-74
2022/08/15 01:59:23;;;;;;;6.25;3.25;;;;;;;23.55;56.21;100181.81;2093062;28;20400;-74
2022/08/15 02:00:52;;;;;;;6.43;4.00;;;;;;;23.51;56.27;100184.72;2091691;28;20187;-74
2022/08/15 02:02:15;;;;;;;6.05;3.83;;;;;;;23.48;56.52;100180.34;2084188;28;20140;-74
2022/08/15 02:03:38;;;;;;;7.88;4.10;;;;;;;23.48;56.46;100177.66;2080424;28;20083;-74
2022/08/15 02:05:02;;;;;;;7.47;3.72;;;;;;;23.50;56.65;100177.59;2100289;28;20237;-74
2022/08/15 02:06:29;;;;;;;8.20;3.85;;;;;;;23.51;56.65;100174.81;2085287;28;20155;-74
2022/08/15 02:07:52;;;;;;;6.53;3.42;;;;;;;23.52;56.60;100171.16;2099281;28;20051;-74
2022/08/15 02:09:16;;;;;;;7.15;3.80;;;;;;;23.55;56.40;100178.25;2101594;28;20226;-74
2022/08/15 02:10:43;;;;;;;5.40;3.75;;;;;;;23.54;56.47;100174.69;2103070;28;20099;-74
2022/08/15 02:12:11;;;;;;;7.45;3.90;;;;;;;23.54;56.43;100174.69;2102287;28;20048;-74
2022/08/15 02:13:35;;;;;;;10.40;3.60;;;;;;;23.50;56.49;100186.53;2102633;28;20040;-74
2022/08/15 02:14:58;;;;;;;6.72;4.15;;;;;;;23.42;56.56;100175.22;2107711;28;20073;-74
2022/08/15 02:16:19;;;;;;;6.45;3.42;;;;;;;23.30;56.68;100190.13;2085555;28;20140;-74
2022/08/15 02:17:44;;;;;;;7.05;3.33;;;;;;;23.23;56.55;100191.38;2088886;28;20060;-74
2022/08/15 02:19:09;;;;;;;6.72;3.50;;;;;;;23.22;56.54;100194.13;2099736;28;20052;-75
2022/08/15 02:20:32;;;;;;;8.32;3.97;;;;;;;23.22;56.55;100192.31;2093142;28;20049;-73
2022/08/15 02:21:54;;;;;;;5.10;3.05;;;;;;;23.22;56.76;100191.44;2093770;28;20041;-74
2022/08/15 02:23:16;;;;;;;5.03;3.28;;;;;;;23.11;56.46;100189.19;2101613;28;20111;-74
2022/08/15 02:24:38;;;;;;;6.07;3.47;;;;;;;23.00;56.70;100184.31;2093775;28;20075;-74
2022/08/15 02:26:01;;;;;;;6.28;3.67;;;;;;;22.96;56.66;100196.19;2107044;28;20043;-74
2022/08/15 02:27:24;;;;;;;7.72;3.83;;;;;;;23.01;56.94;100194.16;2095717;28;20147;-74
2022/08/15 02:28:46;;;;;;;6.85;4.07;;;;;;;23.06;56.92;100191.25;2109372;28;20509;-75
2022/08/15 02:30:14;;;;;;;7.30;3.97;;;;;;;23.10;57.14;100192.88;2106651;28;20583;-74
2022/08/15 02:31:37;;;;;;;8.02;3.45;;;;;;;23.10;57.10;100197.38;2095612;28;20028;-74
2022/08/15 02:33:01;;;;;;;6.25;3.33;;;;;;;23.08;56.66;100197.44;2095050;28;20137;-74
2022/08/15 02:34:24;;;;;;;5.75;3.40;;;;;;;23.09;56.77;100209.97;2118080;27;20054;-74
2022/08/15 02:35:47;;;;;;;6.03;3.80;;;;;;;23.10;56.61;100211.72;2091811;28;20032;-75
2022/08/15 02:37:11;;;;;;;6.22;4.03;;;;;;;23.12;56.85;100203.53;2089892;28;20072;-74
2022/08/15 02:38:34;;;;;;;7.95;4.10;;;;;;;23.14;56.72;100207.94;2093024;28;20037;-74
2022/08/15 02:39:57;;;;;;;6.10;3.65;;;;;;;23.18;56.97;100211.34;2109238;28;20458;-74
2022/08/15 02:41:22;;;;;;;8.30;3.85;;;;;;;23.21;56.91;100204.03;2106098;28;20147;-74
2022/08/15 02:42:47;;;;;;;6.80;3.63;;;;;;;23.24;57.16;100213.75;2102720;28;20052;-74
2022/08/15 02:44:11;;;;;;;5.03;3.38;;;;;;;23.24;56.86;100205.69;2119352;27;20526;-74
2022/08/15 02:45:37;;;;;;;5.88;3.13;;;;;;;23.20;56.70;100210.34;2108622;28;20154;-74
2022/08/15 02:47:00;;;;;;;5.22;3.35;;;;;;;23.13;56.56;100211.56;2087355;28;20049;-74
2022/08/15 02:48:23;;;;;;;7.00;3.85;;;;;;;23.09;56.75;100209.09;2095682;28;20056;-75
2022/08/15 02:49:47;;;;;;;7.90;3.75;;;;;;;23.08;56.69;100213.59;2095356;28;20052;-75
2022/08/15 02:51:12;;;;;;;5.28;3.45;;;;;;;23.10;56.78;100210.84;2093112;28;20052;-74
2022/08/15 02:52:39;;;;;;;6.50;3.80;;;;;;;23.02;56.89;100220.13;2103081;28;20039;-74
2022/08/15 02:54:02;;;;;;;7.05;3.60;;;;;;;22.95;57.08;100228.53;2087715;28;20076;-74
2022/08/15 02:55:24;;;;;;;8.07;3.53;;;;;;;22.90;57.25;100226.06;2100566;28;20551;-74
2022/08/15 02:56:46;;;;;;;5.95;3.33;;;;;;;22.89;57.41;100227.00;2097933;28;20539;-74
2022/08/15 02:58:12;;;;;;;5.72;4.00;;;;;;;22.93;57.64;100230.41;2095202;28;20622;-74
2022/08/15 02:59:35;;;;;;;6.18;3.47;;;;;;;22.99;57.88;100224.75;2093257;28;20561;-74
2022/08/15 03:00:56;;;;;;;7.78;4.35;;;;;;;23.07;57.89;100232.50;2100414;28;20048;-74
2022/08/15 03:02:19;;;;;;;6.90;4.18;;;;;;;23.12;57.71;100230.47;2103161;28;20588;-74
2022/08/15 03:03:44;;;;;;;8.52;4.47;;;;;;;23.18;57.64;100230.19;2102958;28;20139;-74
2022/08/15 03:05:08;;;;;;;6.47;4.20;;;;;;;23.21;57.48;100230.97;2103682;28;20058;-74
2022/08/15 03:06:32;;;;;;;6.18;3.72;;;;;;;23.16;57.40;100226.72;2096555;28;20146;-74
2022/08/15 03:07:57;;;;;;;6.97;4.22;;;;;;;23.05;57.31;100221.78;2094069;28;20053;-74
2022/08/15 03:09:19;;;;;;;7.57;4.05;;;;;;;22.92;57.48;100232.22;2098799;28;20143;-74
2022/08/15 03:10:49;;;;;;;5.10;3.22;;;;;;;22.86;57.66;100228.94;2104492;28;20063;-74
2022/08/15 03:12:15;;;;;;;7.28;3.45;;;;;;;22.81;57.69;100234.53;2103767;28;20048;-75
2022/08/15 03:13:40;;;;;;;6.53;4.40;;;;;;;22.84;57.63;100237.06;2118137;27;20484;-75
2022/08/15 03:15:02;;;;;;;6.50;4.22;;;;;;;22.89;57.81;100239.59;2106174;28;20051;-74
2022/08/15 03:16:30;;;;;;;7.45;3.88;;;;;;;22.94;57.70;100237.56;2109837;28;20040;-74
2022/08/15 03:17:52;;;;;;;7.07;4.10;;;;;;;22.96;57.69;100241.06;2095469;28;20044;-74
2022/08/15 03:19:25;;;;;;;8.35;4.22;;;;;;;22.99;57.76;100238.22;2095190;28;20055;-74
2022/08/15 03:20:49;;;;;;;8.95;4.85;;;;;;;22.99;57.80;100241.78;2089630;28;20716;-74
2022/08/15 03:22:13;;;;;;;6.95;4.28;;;;;;;22.99;58.05;100244.47;2086592;28;20049;-74
2022/08/15 03:23:38;;;;;;;6.90;4.22;;;;;;;22.98;57.98;100244.53;2109791;28;20081;-75
2022/08/15 03:25:01;;;;;;;6.57;3.75;;;;;;;22.97;58.10;100243.66;2097511;28;20393;-74
2022/08/15 03:26:26;;;;;;;10.18;4.45;;;;;;;22.99;58.33;100244.47;2109481;28;20048;-74
2022/08/15 03:27:47;;;;;;;7.68;3.97;;;;;;;22.99;58.07;100239.09;2089264;28;20052;-73
2022/08/15 03:29:11;;;;;;;8.23;4.15;;;;;;;23.03;58.13;100240.72;2101659;28;20039;-74
2022/08/15 03:30:37;;;;;;;5.38;3.78;;;;;;;22.95;58.22;100234.81;2105716;28;20051;-74
2022/08/15 03:32:09;;;;;;;7.00;4.07;;;;;;;22.85;58.33;100233.44;2086948;28;20041;-74
2022/08/15 03:33:32;;;;;;;6.22;3.70;;;;;;;22.79;58.05;100236.41;2109333;28;20063;-74
2022/08/15 03:34:56;;;;;;;6.88;3.60;;;;;;;22.76;58.27;100243.75;2089396;28;20045;-74
2022/08/15 03:36:21;;;;;;;4.90;3.30;;;;;;;22.72;58.02;100248.31;2092492;28;20514;-74
2022/08/15 03:37:43;;;;;;;6.78;3.55;;;;;;;22.67;58.07;100245.84;2106765;28;20052;-75
2022/08/15 03:39:06;;;;;;;7.45;3.80;;;;;;;22.64;58.06;100251.34;2097271;28;20041;-75
2022/08/15 03:40:29;;;;;;;7.13;3.80;;;;;;;22.67;58.01;100247.66;2100882;28;20435;-74
2022/08/15 03:41:52;;;;;;;8.00;4.30;;;;;;;22.73;58.50;100255.50;2097375;28;20052;-74
2022/08/15 03:43:18;;;;;;;6.28;4.03;;;;;;;22.80;58.64;100253.41;2104150;28;20040;-75
2022/08/15 03:44:43;;;;;;;7.05;3.97;;;;;;;22.86;58.55;100245.09;2095569;28;20374;-74
2022/08/15 03:46:11;;;;;;;8.60;4.72;;;;;;;22.92;58.55;100245.69;2095450;28;20044;-74
2022/08/15 03:47:33;;;;;;;8.00;4.20;;;;;;;22.96;58.55;100250.03;2120732;27;20046;-73
2022/08/15 03:48:57;;;;;;;8.73;4.05;;;;;;;23.02;58.57;100247.06;2114415;28;20057;-74
2022/08/15 03:50:23;;;;;;;7.30;4.00;;;;;;;23.06;58.41;100253.16;2103532;28;20051;-74
2022/08/15 03:51:45;;;;;;;8.80;4.00;;;;;;;22.95;58.46;100250.97;2100563;28;20161;-74
2022/08/15 03:53:09;;;;;;;8.05;4.30;;;;;;;22.95;58.65;100256.34;2092001;28;20048;-74
2022/08/15 03:54:34;;;;;;;6.60;3.90;;;;;;;23.02;58.82;100256.94;2100846;28;20047;-73
2022/08/15 03:55:56;;;;;;;6.03;3.95;;;;;;;23.11;58.62;100255.66;2111567;28;20067;-74
2022/08/15 03:57:19;;;;;;;8.88;3.97;;;;;;;23.20;58.50;100255.25;2105236;28;20151;-74
2022/08/15 03:58:42;;;;;;;9.40;4.18;;;;;;;23.26;58.46;100247.78;2094400;28;20049;-74
2022/08/15 04:00:13;;;;;;;7.68;4.10;;;;;;;23.35;58.48;100255.47;2093625;28;20080;-74
2022/08/15 04:01:42;;;;;;;9.18;4.40;;;;;;;23.44;58.65;100259.53;2094091;28;20191;-74
2022/08/15 04:03:06;;;;;;;7.10;3.88;;;;;;;23.54;58.48;100260.03;2095080;28;20113;-73
2022/08/15 04:04:29;;;;;;;6.85;3.58;;;;;;;23.62;58.28;100249.78;2086771;28;20037;-74
2022/08/15 04:05:57;;;;;;;7.60;3.67;;;;;;;23.71;58.11;100244.81;2097985;28;20070;-74
2022/08/15 04:07:20;;;;;;;6.53;3.83;;;;;;;23.79;57.88;100253.44;2099059;28;20056;-74
2022/08/15 04:08:42;;;;;;;7.40;3.55;;;;;;;23.88;57.62;100253.97;2092235;28;20070;-74
2022/08/15 04:10:08;;;;;;;7.93;3.67;;;;;;;23.87;57.12;100253.09;2092371;28;20055;-74
2022/08/15 04:11:31;;;;;;;7.05;3.35;;;;;;;23.86;56.93;100256.72;2109475;28;20093;-75
2022/08/15 04:12:53;;;;;;;9.02;3.20;;;;;;;23.89;56.88;100261.09;2104377;28;20044;-74
2022/08/15 04:14:15;;;;;;;5.15;3.03;;;;;;;23.91;56.61;100254.69;2119797;27;20050;-74
2022/08/15 04:15:38;;;;;;;5.95;3.00;;;;;;;23.93;56.19;100262.69;2099808;28;20078;-74
2022/08/15 04:17:01;;;;;;;5.82;3.05;;;;;;;24.00;56.19;100265.03;2096978;28;20476;-74
2022/08/15 04:18:24;;;;;;;6.88;3.47;;;;;;;24.16;56.27;100263.34;2110212;27;20133;-74
2022/08/15 04:19:47;;;;;;;5.75;2.95;;;;;;;24.34;55.86;100266.13;2099333;28;20036;-74
2022/08/15 04:21:13;;;;;;;9.07;3.17;;;;;;;24.53;55.68;100269.69;2094797;28;20052;-74
2022/08/15 04:22:40;;;;;;;19.65;3.88;;;;;;;24.69;55.51;100258.97;2088985;28;20471;-74
2022/08/15 04:24:05;;;;;;;5.72;3.60;;;;;;;24.86;55.39;100269.81;2110021;27;20065;-75
2022/08/15 04:25:30;;;;;;;6.75;3.65;;;;;;;25.04;54.94;100270.72;2099844;28;20435;-74
2022/08/15 04:26:53;;;;;;;5.05;3.20;;;;;;;25.17;54.59;100267.28;2092229;28;20063;-74
2022/08/15 04:28:18;;;;;;;4.68;3.05;;;;;;;25.32;54.62;100261.09;2091856;28;20385;-74
2022/08/15 04:29:40;;;;;;;7.72;2.97;;;;;;;25.46;54.70;100270.28;2091946;28;20037;-74
2022/08/15 04:31:06;;;;;;;5.22;2.92;;;;;;;25.58;54.40;100272.34;2091845;28;20082;-74
2022/08/15 04:32:29;;;;;;;6.53;2.92;;;;;;;25.68;54.28;100271.75;2091123;28;20052;-75
2022/08/15 04:33:52;;;;;;;4.68;2.63;;;;;;;25.78;53.89;100274.84;2102432;28;20826;-74
2022/08/15 04:35:16;;;;;;;6.28;2.83;;;;;;;25.85;53.40;100281.69;2098325;28;20043;-74
2022/08/15 04:36:38;;;;;;;4.13;2.75;;;;;;;25.94;53.24;100278.44;2091862;28;20047;-74
2022/08/15 04:38:02;;;;;;;4.68;2.70;;;;;;;26.08;52.91;100281.25;2093164;28;20056;-74
2022/08/15 04:39:25;;;;;;;6.93;2.88;;;;;;;26.24;52.62;100285.81;2091683;28;20049;-74
2022/08/15 04:41:01;;;;;;;6.45;3.35;;;;;;;26.39;52.13;100277.69;2100528;28;20059;-74
2022/08/15 04:42:24;;;;;;;5.82;2.95;;;;;;;26.53;52.04;100285.03;2102345;27;20554;-74
2022/08/15 04:43:48;;;;;;;5.03;2.90;;;;;;;26.70;51.69;100282.22;2099706;28;20199;-74
2022/08/15 04:45:13;;;;;;;7.40;3.10;;;;;;;26.86;51.55;100285.75;2086788;28;20151;-74
2022/08/15 04:46:38;;;;;;;6.55;2.80;;;;;;;27.00;51.25;100289.53;2091560;28;20129;-75
2022/08/15 04:48:02;;;;;;;8.82;2.88;;;;;;;27.16;51.12;100295.78;2094344;28;20044;-74
2022/08/15 04:49:26;;;;;;;6.25;3.15;;;;;;;27.30;50.98;100293.13;2088348;28;20175;-74
2022/08/15 04:50:50;;;;;;;5.15;2.90;;;;;;;27.48;50.91;100291.97;2090539;28;20369;-74
2022/08/15 04:52:16;;;;;;;5.65;2.60;;;;;;;27.65;50.64;100290.94;2094686;28;20064;-74
2022/08/15 04:53:44;;;;;;;6.35;2.75;;;;;;;27.82;50.44;100282.63;2095464;28;20495;-75
2022/08/15 04:55:07;;;;;;;4.70;2.60;;;;;;;28.01;50.15;100287.75;2113720;27;20043;-75
2022/08/15 04:56:33;;;;;;;5.95;2.65;;;;;;;28.19;49.72;100285.72;2100409;28;20040;-74
2022/08/15 04:57:56;;;;;;;9.10;2.97;;;;;;;28.38;49.33;100288.97;2108667;28;20073;-74
2022/08/15 04:59:20;;;;;;;3.85;2.50;;;;;;;28.55;48.98;100292.31;2102080;28;20465;-75
2022/08/15 05:00:50;;;;;;;5.05;3.00;;;;;;;28.73;48.58;100286.66;2087009;28;20040;-74
2022/08/15 05:02:28;;;;;;;4.10;2.97;;;;;;;28.93;48.27;100289.81;2095759;28;20106;-74
2022/08/15 05:03:51;;;;;;;6.40;3.05;;;;;;;29.09;47.66;100286.88;2097966;28;20048;-74
2022/08/15 05:05:12;;;;;;;8.38;3.22;;;;;;;29.28;47.16;100290.06;2108847;28;20052;-75
2022/08/15 05:06:35;;;;;;;6.80;2.65;;;;;;;29.42;46.68;100286.44;2096782;28;20048;-74
2022/08/15 05:08:00;;;;;;;7.35;3.40;;;;;;;29.54;46.14;100282.84;2092753;28;20048;-74
2022/08/15 05:09:28;;;;;;;7.72;2.85;;;;;;;29.69;45.98;100287.19;2110096;28;20043;-74
2022/08/15 05:10:54;;;;;;;5.22;3.10;;;;;;;29.81;45.63;100290.88;2100016;28;20036;-74
2022/08/15 05:12:18;;;;;;;6.28;2.55;;;;;;;29.91;45.09;100289.25;2089203;28;20503;-74
2022/08/15 05:13:43;;;;;;;4.95;2.55;;;;;;;30.05;44.76;100300.06;2099892;28;20147;-75
2022/08/15 05:15:11;;;;;;;3.58;2.45;;;;;;;30.21;44.74;100293.47;2103311;28;20055;-75
2022/08/15 05:16:37;;;;;;;4.90;2.95;;;;;;;30.38;43.89;100295.84;2091430;28;20434;-74
2022/08/15 05:18:04;;;;;;;10.45;2.70;;;;;;;30.58;43.99;100298.00;2091896;28;20053;-74
2022/08/15 05:19:27;;;;;;;5.85;2.60;;;;;;;30.78;43.32;100297.38;2088547;28;20041;-74
2022/08/15 05:20:50;;;;;;;4.70;2.55;;;;;;;30.99;42.71;100296.69;2095437;28;20059;-75
2022/08/15 05:22:13;;;;;;;3.80;2.42;;;;;;;31.17;42.27;100300.78;2102319;28;20543;-75
2022/08/15 05:23:37;;;;;;;7.90;2.22;;;;;;;31.35;41.74;100301.19;2110902;28;20545;-74
2022/08/15 05:24:59;;;;;;;5.13;2.60;;;;;;;31.51;41.13;100305.31;2097334;28;20060;-74
2022/08/15 05:26:23;;;;;;;3.65;2.25;;;;;;;31.69;41.12;100299.44;2093101;28;20052;-74
2022/08/15 05:27:44;;;;;;;5.28;2.78;;;;;;;31.88;41.00;100300.59;2098857;28;20520;-74
2022/08/15 05:29:07;;;;;;;6.13;2.78;;;;;;;32.10;40.46;100307.88;2093818;28;20091;-74
2022/08/15 05:30:31;;;;;;;5.50;2.60;;;;;;;32.26;40.49;100304.81;2091484;28;20045;-75
2022/08/15 05:31:54;;;;;;;4.40;2.35;;;;;;;32.41;39.98;100298.09;2084160;28;20060;-74
2022/08/15 05:33:20;;;;;;;4.57;2.35;;;;;;;32.57;39.29;100309.50;2096655;28;20557;-74
2022/08/15 05:34:43;;;;;;;4.85;2.80;;;;;;;32.74;39.01;100308.13;2102315;28;20516;-74
2022/08/15 05:36:08;;;;;;;6.00;2.65;;;;;;;32.89;38.57;100311.41;2097785;28;20055;-75
2022/08/15 05:37:32;;;;;;;6.93;2.50;;;;;;;33.04;38.27;100304.66;2092481;28;20048;-75
2022/08/15 05:38:58;;;;;;;8.70;2.97;;;;;;;33.21;38.23;100307.69;2099770;28;20143;-74
2022/08/15 05:40:25;;;;;;;6.40;2.78;;;;;;;33.40;38.13;100308.88;2088322;28;20053;-74
2022/08/15 05:41:56;;;;;;;6.18;2.25;;;;;;;33.52;37.62;100313.28;2089495;28;20045;-74
2022/08/15 05:43:30;;;;;;;5.97;2.80;;;;;;;33.67;37.32;100305.59;2094996;28;20083;-75
2022/08/15 05:45:02;;;;;;;5.18;2.63;;;;;;;33.82;37.11;100312.47;2104742;28;20047;-74
2022/08/15 05:46:33;;;;;;;10.48;2.90;;;;;;;33.98;36.99;100313.72;2095022;28;20181;-74
2022/08/15 05:48:06;;;;;;;5.68;2.20;;;;;;;34.18;36.44;100308.34;2119033;27;20503;-75
2022/08/15 05:49:39;;;;;;;6.53;2.60;;;;;;;34.25;35.91;100310.41;2093764;28;20566;-74
2022/08/15 05:51:12;;;;;;;3.65;2.20;;;;;;;34.29;35.47;100311.00;2092736;28;20093;-75
2022/08/15 05:52:46;;;;;;;3.13;1.75;;;;;;;34.34;34.79;100309.56;2092449;28;20052;-75
2022/08/15 05:54:23;;;;;;;4.95;2.40;;;;;;;34.39;34.86;100310.03;2102312;28;20125;-74
2022/08/15 05:55:54;;;;;;;3.97;2.22;;;;;;;34.47;34.53;100306.56;2088313;28;20047;-74
2022/08/15 05:57:22;;;;;;;6.95;2.42;;;;;;;34.56;34.49;100313.09;2109085;28;20039;-74
2022/08/15 05:58:50;;;;;;;3.20;2.10;;;;;;;34.50;34.45;100308.16;2094600;28;20108;-75
2022/08/15 06:00:16;;;;;;;4.03;2.17;;;;;;;34.62;34.44;100307.03;2095179;28;20558;-74
2022/08/15 06:01:45;;;;;;;4.55;2.78;;;;;;;34.77;34.18;100311.16;2091599;28;20056;-75
2022/08/15 06:03:14;;;;;;;4.20;1.95;;;;;;;34.88;34.28;100308.28;2091167;28;20041;-74
2022/08/15 06:04:47;;;;;;;3.92;2.08;;;;;;;34.98;34.14;100313.78;2097277;28;20130;-75
2022/08/15 06:06:10;;;;;;;;;;;;;;;34.92;34.23;100312.44;2102412;28;20048;-74
2022/08/15 06:07:33;;;;;;;5.28;2.08;;;;;;;35.03;34.38;100311.47;2094154;28;19921;-75
2022/08/15 06:09:01;;;;;;;3.70;2.25;;;;;;;35.15;33.82;100322.16;2091444;28;20052;-75
2022/08/15 06:10:28;;;;;;;3.58;1.77;;;;;;;35.23;33.72;100309.63;2092313;28;20061;-75
2022/08/15 06:11:53;;;;;;;4.05;1.90;;;;;;;35.26;33.45;100314.81;2102665;28;20528;-75
2022/08/15 06:13:21;;;;;;;4.15;2.00;;;;;;;35.29;33.14;100309.03;2088002;28;20082;-75
2022/08/15 06:14:47;;;;;;;3.65;1.90;;;;;;;35.34;33.18;100313.06;2094572;28;20032;-75
2022/08/15 06:16:17;;;;;;;4.38;1.73;;;;;;;35.38;32.82;100311.75;2109779;28;20066;-75
2022/08/15 06:17:46;;;;;;;4.13;1.83;;;;;;;35.40;32.57;100315.22;2098814;28;20059;-73
2022/08/15 06:19:21;;;;;;;3.72;2.15;;;;;;;35.39;32.14;100313.50;2090329;28;20048;-72
2022/08/15 06:20:54;;;;;;;3.88;1.80;;;;;;;35.45;32.01;100318.41;2102246;28;20051;-72
2022/08/15 06:22:29;;;;;;;4.72;2.13;;;;;;;35.51;31.61;100312.31;2094725;28;20045;-73
2022/08/15 06:24:01;;;;;;;4.43;1.90;;;;;;;35.47;31.77;100319.13;2102618;28;20377;-73
2022/08/15 06:25:34;;;;;;;3.50;1.70;;;;;;;35.46;32.04;100314.66;2093895;28;20060;-75
2022/08/15 06:27:05;;;;;;;5.15;2.15;;;;;;;35.52;32.05;100319.53;2095365;28;20037;-75
2022/08/15 06:28:53;;;;;;;4.80;1.90;;;;;;;35.49;31.86;100328.09;2101890;28;20540;-75
2022/08/15 06:30:19;;;;;;;6.43;2.40;;;;;;;35.46;32.07;100324.75;2104778;28;20134;-75
2022/08/15 06:31:48;;;;;;;2.53;1.50;;;;;;;35.49;32.10;100319.84;2107808;28;20403;-75
2022/08/15 06:33:27;;;;;;;4.60;2.17;;;;;;;35.49;32.25;100310.75;2096005;28;20083;-76
2022/08/15 06:34:58;;;;;;;5.13;2.67;;;;;;;35.42;32.84;100315.97;2095603;28;20048;-75
2022/08/15 06:36:32;;;;;;;3.90;2.10;;;;;;;35.49;32.84;100319.00;2086701;28;20206;-75